createdAt,value
2024-04-22T00:02:29.310Z,3.01
2024-04-22T00:07:31.098Z,3.00
2024-04-22T00:12:32.973Z,2.97
2024-04-22T00:17:35.513Z,2.90
2024-04-22T00:22:37.451Z,2.83
2024-04-22T00:27:39.200Z,2.77
2024-04-22T00:32:41.059Z,2.72
2024-04-22T00:37:42.995Z,2.68
2024-04-22T00:42:48.315Z,2.63
2024-04-22T00:47:50.611Z,2.56
2024-04-22T00:52:53.435Z,2.49
2024-04-22T00:57:58.397Z,2.43
2024-04-22T01:03:00.108Z,2.39
2024-04-22T01:08:02.487Z,2.33
2024-04-22T01:13:04.976Z,2.27
2024-04-22T01:18:07.029Z,2.22
2024-04-22T01:23:08.668Z,2.18
2024-04-22T01:28:10.468Z,2.17
2024-04-22T01:33:12.395Z,2.17
2024-04-22T01:38:14.116Z,2.16
2024-04-22T01:43:15.907Z,2.14
2024-04-22T01:48:17.751Z,2.12
2024-04-22T01:53:19.414Z,2.07
2024-04-22T01:58:21.183Z,2.00
2024-04-22T02:03:23.170Z,1.93
2024-04-22T02:08:24.884Z,1.90
2024-04-22T02:13:26.664Z,1.85
2024-04-22T02:18:28.654Z,1.82
2024-04-22T02:23:30.548Z,1.76
2024-04-22T02:28:32.322Z,1.72
2024-04-22T02:33:34.172Z,1.64
2024-04-22T02:38:36.010Z,1.57
2024-04-22T02:43:37.803Z,1.52
2024-04-22T02:48:39.697Z,1.49
2024-04-22T02:53:41.569Z,1.48
2024-04-22T02:58:46.340Z,1.48
2024-04-22T03:03:48.159Z,1.46
2024-04-22T03:08:51.631Z,1.44
2024-04-22T03:13:53.504Z,1.42
2024-04-22T03:18:55.256Z,1.39
2024-04-22T03:23:56.997Z,1.38
2024-04-22T03:28:58.793Z,1.36
2024-04-22T03:34:00.880Z,1.36
2024-04-22T03:39:02.549Z,1.35
2024-04-22T03:44:04.436Z,1.34
2024-04-22T03:49:24.988Z,1.34
2024-04-22T03:54:26.673Z,1.33
2024-04-22T03:59:28.516Z,1.29
2024-04-22T04:04:30.379Z,1.27
2024-04-22T04:09:32.271Z,1.24
2024-04-22T04:14:34.032Z,1.24
2024-04-22T04:19:35.950Z,1.22
2024-04-22T04:24:37.823Z,1.23
2024-04-22T04:29:39.571Z,1.23
2024-04-22T04:34:43.581Z,1.23
2024-04-22T04:39:45.332Z,1.25
2024-04-22T04:44:47.021Z,1.28
2024-04-22T04:49:48.961Z,1.33
2024-04-22T04:54:53.141Z,1.39
2024-04-22T04:59:55.220Z,1.41
2024-04-22T05:04:56.963Z,1.41
2024-04-22T05:09:58.725Z,1.43
2024-04-22T05:15:01.612Z,1.45
2024-04-22T05:20:03.630Z,1.45
2024-04-22T05:25:05.479Z,1.48
2024-04-22T05:30:07.596Z,1.56
2024-04-22T05:35:28.180Z,1.63
2024-04-22T05:40:30.641Z,1.71
2024-04-22T05:45:33.901Z,1.79
2024-04-22T05:50:35.667Z,1.85
2024-04-22T05:55:37.468Z,1.90
2024-04-22T06:00:39.328Z,1.92
2024-04-22T06:05:41.290Z,2.02
2024-04-22T06:10:47.191Z,2.05
2024-04-22T06:15:49.090Z,2.03
2024-04-22T06:20:50.888Z,2.02
2024-04-22T06:25:52.663Z,2.05
2024-04-22T06:30:54.381Z,2.13
2024-04-22T06:35:56.946Z,2.24
2024-04-22T06:40:58.654Z,2.33
2024-04-22T06:46:00.443Z,2.39
2024-04-22T06:51:02.210Z,2.46
2024-04-22T06:56:04.211Z,2.58
2024-04-22T07:01:05.864Z,2.75
2024-04-22T07:06:11.218Z,2.95
2024-04-22T07:11:12.981Z,3.12
2024-04-22T07:16:15.224Z,3.21
2024-04-22T07:21:17.182Z,3.29
2024-04-22T07:26:19.011Z,3.46
2024-04-22T07:31:21.080Z,3.73
2024-04-22T07:36:32.120Z,3.98
2024-04-22T07:41:34.229Z,4.18
2024-04-22T07:46:36.266Z,4.40
2024-04-22T07:51:38.868Z,4.61
2024-04-22T07:56:41.012Z,4.72
2024-04-22T08:01:43.094Z,4.84
2024-04-22T08:06:45.671Z,4.95
2024-04-22T08:11:47.486Z,5.10
2024-04-22T08:16:49.334Z,5.23
2024-04-22T08:21:51.208Z,5.27
2024-04-22T08:26:57.149Z,5.33
2024-04-22T08:31:58.874Z,5.46
2024-04-22T08:37:00.634Z,5.49
2024-04-22T08:42:10.787Z,5.63
2024-04-22T08:47:12.514Z,5.84
2024-04-22T08:52:16.453Z,6.01
2024-04-22T08:57:18.726Z,6.23
2024-04-22T09:02:21.766Z,6.42
2024-04-22T09:07:23.531Z,6.53
2024-04-22T09:12:25.561Z,6.65
2024-04-22T09:17:27.916Z,6.60
2024-04-22T09:22:31.398Z,6.45
2024-04-22T09:27:33.473Z,6.23
2024-04-22T09:32:36.783Z,6.38
2024-04-22T09:37:39.942Z,6.57
2024-04-22T09:42:43.504Z,6.54
2024-04-22T09:47:47.650Z,6.50
2024-04-22T09:52:51.043Z,6.79
2024-04-22T09:58:01.795Z,7.04
2024-04-22T10:03:06.923Z,7.37
2024-04-22T10:08:09.062Z,7.53
2024-04-22T10:13:12.400Z,7.64
2024-04-22T10:18:16.618Z,7.71
2024-04-22T10:23:18.551Z,7.62
2024-04-22T10:28:20.461Z,7.69
2024-04-22T10:33:22.204Z,7.92
2024-04-22T10:38:23.902Z,8.01
2024-04-22T10:43:25.799Z,7.79
2024-04-22T10:48:28.092Z,7.62
2024-04-22T10:53:29.913Z,7.62
2024-04-22T10:58:31.663Z,7.71
2024-04-22T11:03:33.662Z,7.91
2024-04-22T11:08:36.682Z,8.06
2024-04-22T11:13:39.092Z,8.23
2024-04-22T11:18:40.913Z,8.23
2024-04-22T11:23:43.238Z,8.36
2024-04-22T11:28:46.702Z,8.60
2024-04-22T11:33:48.586Z,8.97
2024-04-22T11:38:51.594Z,9.21
2024-04-22T11:43:54.499Z,9.38
2024-04-22T11:48:56.223Z,9.57
2024-04-22T11:53:58.198Z,9.67
2024-04-22T11:59:00.782Z,9.86
2024-04-22T12:04:02.945Z,9.87
2024-04-22T12:09:06.726Z,9.95
2024-04-22T12:14:09.986Z,10.02
2024-04-22T12:19:11.613Z,10.05
2024-04-22T12:24:13.372Z,10.12
2024-04-22T12:29:15.117Z,10.17
2024-04-22T12:34:17.127Z,10.09
2024-04-22T12:39:20.692Z,9.97
2024-04-22T12:44:22.425Z,9.92
2024-04-22T12:49:42.921Z,9.95
2024-04-22T12:54:44.733Z,9.91
2024-04-22T12:59:46.493Z,9.74
2024-04-22T13:04:48.236Z,9.75
2024-04-22T13:09:49.999Z,9.66
2024-04-22T13:14:53.618Z,9.37
2024-04-22T13:19:55.421Z,9.02
2024-04-22T13:24:57.307Z,8.91
2024-04-22T13:30:03.047Z,8.88
2024-04-22T13:35:05.456Z,8.86
2024-04-22T13:40:08.961Z,8.72
2024-04-22T13:45:10.669Z,8.59
2024-04-22T13:50:12.590Z,8.28
2024-04-22T13:55:14.703Z,8.11
2024-04-22T14:00:16.663Z,8.04
2024-04-22T14:05:18.589Z,7.92
2024-04-22T14:10:20.433Z,7.80
2024-04-22T14:15:27.649Z,7.76
2024-04-22T14:20:39.081Z,7.68
2024-04-22T14:25:40.834Z,7.54
2024-04-22T14:30:42.626Z,7.43
2024-04-22T14:35:44.340Z,7.37
2024-04-22T14:40:46.123Z,7.28
2024-04-22T14:45:47.979Z,7.25
2024-04-22T14:50:53.371Z,7.50
2024-04-22T14:55:55.036Z,7.70
2024-04-22T15:00:56.861Z,7.67
2024-04-22T15:05:58.668Z,7.56
2024-04-22T15:11:03.999Z,7.48
2024-04-22T15:16:08.040Z,7.37
2024-04-22T15:21:09.961Z,7.25
2024-04-22T15:26:11.907Z,7.22
2024-04-22T15:31:13.640Z,7.25
2024-04-22T15:36:17.382Z,7.22
2024-04-22T15:41:19.164Z,7.27
2024-04-22T15:46:20.946Z,7.29
2024-04-22T15:51:23.882Z,7.19
2024-04-22T15:56:25.660Z,7.14
2024-04-22T16:01:27.499Z,7.09
2024-04-22T16:06:29.240Z,7.07
2024-04-22T16:11:32.975Z,7.03
2024-04-22T16:16:36.572Z,6.82
2024-04-22T16:21:38.386Z,6.60
2024-04-22T16:26:40.137Z,6.49
2024-04-22T16:31:42.510Z,6.43
2024-04-22T16:36:45.312Z,6.33
2024-04-22T16:41:47.064Z,6.19
2024-04-22T16:46:48.817Z,6.01
2024-04-22T16:51:50.608Z,5.79
2024-04-22T16:56:52.235Z,5.61
2024-04-22T17:01:53.986Z,5.46
2024-04-22T17:06:55.936Z,5.37
2024-04-22T17:11:57.753Z,5.31
2024-04-22T17:17:01.748Z,5.23
2024-04-22T17:22:05.184Z,5.09
2024-04-22T17:27:06.952Z,4.95
2024-04-22T17:32:08.781Z,4.79
2024-04-22T17:37:12.484Z,4.64
2024-04-22T17:42:14.427Z,4.46
2024-04-22T17:47:16.214Z,4.29
2024-04-22T17:52:17.993Z,4.11
2024-04-22T17:57:19.742Z,3.94
2024-04-22T18:02:21.540Z,3.77
2024-04-22T18:07:23.387Z,3.61
2024-04-22T18:12:25.102Z,3.45
2024-04-22T18:17:27.424Z,3.32
2024-04-22T18:22:32.370Z,3.16
2024-04-22T18:27:40.169Z,3.00
2024-04-22T18:32:43.490Z,2.87
2024-04-22T18:37:45.276Z,2.75
2024-04-22T18:42:47.011Z,2.68
2024-04-22T18:47:48.854Z,2.60
2024-04-22T18:52:50.776Z,2.53
2024-04-22T18:57:52.735Z,2.46
2024-04-22T19:02:55.185Z,2.37
2024-04-22T19:07:57.032Z,2.33
2024-04-22T19:12:58.994Z,2.31
2024-04-22T19:18:00.929Z,2.27
2024-04-22T19:23:02.884Z,2.25
2024-04-22T19:28:04.924Z,2.20
2024-04-22T19:33:07.663Z,2.12
2024-04-22T19:38:09.414Z,2.09
2024-04-22T19:43:11.141Z,2.03
2024-04-22T19:48:13.226Z,1.97
2024-04-22T19:53:15.208Z,1.91
2024-04-22T19:58:17.052Z,1.82
2024-04-22T20:03:18.776Z,1.68
2024-04-22T20:08:21.441Z,1.55
2024-04-22T20:13:23.261Z,1.40
2024-04-22T20:18:40.538Z,1.27
2024-04-22T20:23:42.286Z,1.13
2024-04-22T20:28:44.086Z,1.00
2024-04-22T20:33:46.280Z,0.86
2024-04-22T20:38:48.125Z,0.70
2024-04-22T20:43:49.912Z,0.59
2024-04-22T20:48:51.751Z,0.48
2024-04-22T20:53:53.473Z,0.39
2024-04-22T20:58:56.441Z,0.33
2024-04-22T21:03:58.250Z,0.27
2024-04-22T21:09:04.088Z,0.23
2024-04-22T21:14:06.079Z,0.20
2024-04-22T21:19:15.064Z,0.18
2024-04-22T21:24:21.896Z,0.13
2024-04-22T21:29:23.788Z,0.07
2024-04-22T21:34:25.722Z,-0.00
2024-04-22T21:39:27.679Z,-0.07
2024-04-22T21:44:30.161Z,-0.15
2024-04-22T21:49:32.076Z,-0.25
2024-04-22T21:54:33.759Z,-0.35
2024-04-22T22:00:13.143Z,-0.44
2024-04-22T22:05:52.673Z,-0.55
2024-04-22T22:16:15.930Z,-0.70
2024-04-22T22:21:17.826Z,-0.75
2024-04-22T22:26:19.521Z,-0.80
2024-04-22T22:31:21.314Z,-0.85
2024-04-22T22:36:23.137Z,-0.87
2024-04-22T22:41:24.792Z,-0.91
2024-04-22T22:46:26.463Z,-0.95
2024-04-22T22:51:28.137Z,-0.98
2024-04-22T22:56:29.826Z,-1.02
2024-04-22T23:01:31.517Z,-1.06
2024-04-22T23:06:33.442Z,-1.07
2024-04-22T23:11:35.163Z,-1.10
2024-04-22T23:16:37.370Z,-1.12
2024-04-22T23:21:39.067Z,-1.13
2024-04-22T23:26:52.089Z,-1.17
2024-04-22T23:31:53.827Z,-1.23
2024-04-22T23:36:55.600Z,-1.27
2024-04-22T23:41:57.288Z,-1.32
2024-04-22T23:46:59.236Z,-1.34
2024-04-22T23:52:01.097Z,-1.36
2024-04-22T23:57:03.984Z,-1.37
